sensor_id;sensor_type;location;lat;lon;timestamp;temperature;humidity
8994;DHT22;4532;50.886;4.700;2023-10-31T00:00:44;13.70;75.50
8994;DHT22;4532;50.886;4.700;2023-10-31T00:03:12;13.70;75.50
8994;DHT22;4532;50.886;4.700;2023-10-31T00:05:41;13.70;75.60
8994;DHT22;4532;50.886;4.700;2023-10-31T00:08:12;13.80;75.70
8994;DHT22;4532;50.886;4.700;2023-10-31T00:10:39;13.70;75.50
8994;DHT22;4532;50.886;4.700;2023-10-31T00:13:06;13.80;75.60
8994;DHT22;4532;50.886;4.700;2023-10-31T00:15:33;13.80;75.70
8994;DHT22;4532;50.886;4.700;2023-10-31T00:18:00;13.80;75.70
8994;DHT22;4532;50.886;4.700;2023-10-31T00:20:27;13.80;75.70
8994;DHT22;4532;50.886;4.700;2023-10-31T00:22:55;13.80;75.60
8994;DHT22;4532;50.886;4.700;2023-10-31T00:25:24;13.80;75.60
8994;DHT22;4532;50.886;4.700;2023-10-31T00:27:51;13.80;75.60
8994;DHT22;4532;50.886;4.700;2023-10-31T00:30:21;13.90;75.70
8994;DHT22;4532;50.886;4.700;2023-10-31T00:32:50;13.90;75.80
8994;DHT22;4532;50.886;4.700;2023-10-31T00:35:17;13.80;75.70
8994;DHT22;4532;50.886;4.700;2023-10-31T00:37:51;13.90;75.70
8994;DHT22;4532;50.886;4.700;2023-10-31T00:40:18;13.90;75.70
8994;DHT22;4532;50.886;4.700;2023-10-31T00:42:50;13.90;75.60
8994;DHT22;4532;50.886;4.700;2023-10-31T00:45:17;13.90;75.60
8994;DHT22;4532;50.886;4.700;2023-10-31T00:47:44;13.90;75.60
8994;DHT22;4532;50.886;4.700;2023-10-31T00:50:16;13.90;75.60
8994;DHT22;4532;50.886;4.700;2023-10-31T00:52:43;13.90;75.60
8994;DHT22;4532;50.886;4.700;2023-10-31T00:55:13;13.90;75.60
8994;DHT22;4532;50.886;4.700;2023-10-31T00:57:40;13.90;75.60
8994;DHT22;4532;50.886;4.700;2023-10-31T01:00:07;13.90;75.60
8994;DHT22;4532;50.886;4.700;2023-10-31T01:02:38;13.90;75.60
8994;DHT22;4532;50.886;4.700;2023-10-31T01:05:08;13.90;75.60
8994;DHT22;4532;50.886;4.700;2023-10-31T01:07:37;13.90;75.60
8994;DHT22;4532;50.886;4.700;2023-10-31T01:10:05;13.90;75.60
8994;DHT22;4532;50.886;4.700;2023-10-31T01:12:37;13.80;75.60
8994;DHT22;4532;50.886;4.700;2023-10-31T01:15:06;13.80;75.50
8994;DHT22;4532;50.886;4.700;2023-10-31T01:17:34;13.80;75.60
8994;DHT22;4532;50.886;4.700;2023-10-31T01:20:03;13.80;75.60
8994;DHT22;4532;50.886;4.700;2023-10-31T01:22:31;13.80;75.60
8994;DHT22;4532;50.886;4.700;2023-10-31T01:24:58;13.80;75.70
8994;DHT22;4532;50.886;4.700;2023-10-31T01:27:25;13.80;75.70
8994;DHT22;4532;50.886;4.700;2023-10-31T01:29:55;13.80;75.70
8994;DHT22;4532;50.886;4.700;2023-10-31T01:32:22;13.80;75.80
8994;DHT22;4532;50.886;4.700;2023-10-31T01:34:51;13.80;75.70
8994;DHT22;4532;50.886;4.700;2023-10-31T01:37:21;13.90;75.80
8994;DHT22;4532;50.886;4.700;2023-10-31T01:39:48;13.90;75.80
8994;DHT22;4532;50.886;4.700;2023-10-31T01:42:16;13.90;75.80
8994;DHT22;4532;50.886;4.700;2023-10-31T01:44:46;13.80;75.70
8994;DHT22;4532;50.886;4.700;2023-10-31T01:47:16;13.80;75.70
8994;DHT22;4532;50.886;4.700;2023-10-31T01:49:45;13.90;75.70
8994;DHT22;4532;50.886;4.700;2023-10-31T01:52:15;13.80;75.70
8994;DHT22;4532;50.886;4.700;2023-10-31T01:54:47;13.90;75.70
8994;DHT22;4532;50.886;4.700;2023-10-31T01:57:14;13.80;75.70
8994;DHT22;4532;50.886;4.700;2023-10-31T01:59:41;13.80;75.70
8994;DHT22;4532;50.886;4.700;2023-10-31T02:02:09;13.80;75.70
8994;DHT22;4532;50.886;4.700;2023-10-31T02:04:39;13.80;75.80
8994;DHT22;4532;50.886;4.700;2023-10-31T02:07:06;13.80;75.70
8994;DHT22;4532;50.886;4.700;2023-10-31T02:09:36;13.80;75.70
8994;DHT22;4532;50.886;4.700;2023-10-31T02:12:05;13.80;75.70
8994;DHT22;4532;50.886;4.700;2023-10-31T02:14:33;13.80;75.60
8994;DHT22;4532;50.886;4.700;2023-10-31T02:17:02;13.80;75.60
8994;DHT22;4532;50.886;4.700;2023-10-31T02:19:31;13.80;75.60
8994;DHT22;4532;50.886;4.700;2023-10-31T02:22:01;13.80;75.60
8994;DHT22;4532;50.886;4.700;2023-10-31T02:24:32;13.70;75.60
8994;DHT22;4532;50.886;4.700;2023-10-31T02:27:02;13.70;75.50
8994;DHT22;4532;50.886;4.700;2023-10-31T02:29:30;13.70;75.60
8994;DHT22;4532;50.886;4.700;2023-10-31T02:32:02;13.70;75.50
8994;DHT22;4532;50.886;4.700;2023-10-31T02:34:29;13.70;75.60
8994;DHT22;4532;50.886;4.700;2023-10-31T02:36:56;13.60;75.60
8994;DHT22;4532;50.886;4.700;2023-10-31T02:39:24;13.60;75.60
8994;DHT22;4532;50.886;4.700;2023-10-31T02:41:53;13.60;75.60
8994;DHT22;4532;50.886;4.700;2023-10-31T02:44:20;13.60;75.50
8994;DHT22;4532;50.886;4.700;2023-10-31T02:46:50;13.60;75.60
8994;DHT22;4532;50.886;4.700;2023-10-31T02:49:22;13.60;75.70
8994;DHT22;4532;50.886;4.700;2023-10-31T02:51:49;13.60;75.70
8994;DHT22;4532;50.886;4.700;2023-10-31T02:54:18;13.60;75.60
8994;DHT22;4532;50.886;4.700;2023-10-31T02:56:45;13.60;75.70
8994;DHT22;4532;50.886;4.700;2023-10-31T02:59:16;13.50;75.60
8994;DHT22;4532;50.886;4.700;2023-10-31T03:01:46;13.50;75.60
8994;DHT22;4532;50.886;4.700;2023-10-31T03:04:13;13.50;75.60
8994;DHT22;4532;50.886;4.700;2023-10-31T03:06:43;13.50;75.70
8994;DHT22;4532;50.886;4.700;2023-10-31T03:09:15;13.50;75.70
8994;DHT22;4532;50.886;4.700;2023-10-31T03:11:44;13.50;75.70
8994;DHT22;4532;50.886;4.700;2023-10-31T03:14:11;13.50;75.80
8994;DHT22;4532;50.886;4.700;2023-10-31T03:16:41;13.50;75.70
8994;DHT22;4532;50.886;4.700;2023-10-31T03:19:11;13.40;75.60
8994;DHT22;4532;50.886;4.700;2023-10-31T03:21:42;13.40;75.60
8994;DHT22;4532;50.886;4.700;2023-10-31T03:24:09;13.40;75.70
8994;DHT22;4532;50.886;4.700;2023-10-31T03:26:39;13.40;75.60
8994;DHT22;4532;50.886;4.700;2023-10-31T03:29:08;13.40;75.70
8994;DHT22;4532;50.886;4.700;2023-10-31T03:31:35;13.40;75.70
8994;DHT22;4532;50.886;4.700;2023-10-31T03:34:03;13.40;75.80
8994;DHT22;4532;50.886;4.700;2023-10-31T03:36:30;13.40;75.80
8994;DHT22;4532;50.886;4.700;2023-10-31T03:38:57;13.40;75.80
8994;DHT22;4532;50.886;4.700;2023-10-31T03:41:27;13.40;75.80
8994;DHT22;4532;50.886;4.700;2023-10-31T03:43:54;13.40;75.80
8994;DHT22;4532;50.886;4.700;2023-10-31T03:46:24;13.40;75.70
8994;DHT22;4532;50.886;4.700;2023-10-31T03:48:51;13.40;75.70
8994;DHT22;4532;50.886;4.700;2023-10-31T03:51:20;13.40;75.70
8994;DHT22;4532;50.886;4.700;2023-10-31T03:53:47;13.40;75.70
8994;DHT22;4532;50.886;4.700;2023-10-31T03:56:15;13.40;75.70
8994;DHT22;4532;50.886;4.700;2023-10-31T03:58:46;13.40;75.70
8994;DHT22;4532;50.886;4.700;2023-10-31T04:01:13;13.30;75.70
8994;DHT22;4532;50.886;4.700;2023-10-31T04:03:43;13.30;75.60
8994;DHT22;4532;50.886;4.700;2023-10-31T04:06:16;13.30;75.60
8994;DHT22;4532;50.886;4.700;2023-10-31T04:08:43;13.30;75.60
8994;DHT22;4532;50.886;4.700;2023-10-31T04:11:10;13.30;75.60
8994;DHT22;4532;50.886;4.700;2023-10-31T04:13:37;13.20;75.60
8994;DHT22;4532;50.886;4.700;2023-10-31T04:16:07;13.20;75.60
8994;DHT22;4532;50.886;4.700;2023-10-31T04:18:39;13.20;75.70
8994;DHT22;4532;50.886;4.700;2023-10-31T04:21:06;13.20;75.60
8994;DHT22;4532;50.886;4.700;2023-10-31T04:23:35;13.20;75.70
8994;DHT22;4532;50.886;4.700;2023-10-31T04:26:08;13.20;75.60
8994;DHT22;4532;50.886;4.700;2023-10-31T04:28:40;13.10;75.60
8994;DHT22;4532;50.886;4.700;2023-10-31T04:31:07;13.10;75.60
8994;DHT22;4532;50.886;4.700;2023-10-31T04:33:35;13.10;75.60
8994;DHT22;4532;50.886;4.700;2023-10-31T04:36:04;13.10;75.60
8994;DHT22;4532;50.886;4.700;2023-10-31T04:38:36;13.10;75.50
8994;DHT22;4532;50.886;4.700;2023-10-31T04:41:07;13.00;75.40
8994;DHT22;4532;50.886;4.700;2023-10-31T04:43:37;13.00;76.30
8994;DHT22;4532;50.886;4.700;2023-10-31T04:46:04;13.00;75.60
8994;DHT22;4532;50.886;4.700;2023-10-31T04:48:33;13.00;75.70
8994;DHT22;4532;50.886;4.700;2023-10-31T04:51:03;13.00;75.70
8994;DHT22;4532;50.886;4.700;2023-10-31T04:53:32;12.90;75.60
8994;DHT22;4532;50.886;4.700;2023-10-31T04:56:15;12.90;75.60
8994;DHT22;4532;50.886;4.700;2023-10-31T04:58:42;12.90;75.60
8994;DHT22;4532;50.886;4.700;2023-10-31T05:01:13;12.90;75.70
8994;DHT22;4532;50.886;4.700;2023-10-31T05:03:43;12.90;75.70
8994;DHT22;4532;50.886;4.700;2023-10-31T05:06:10;12.90;75.80
8994;DHT22;4532;50.886;4.700;2023-10-31T05:08:42;12.90;75.70
8994;DHT22;4532;50.886;4.700;2023-10-31T05:11:10;12.80;75.60
8994;DHT22;4532;50.886;4.700;2023-10-31T05:13:38;12.80;75.60
8994;DHT22;4532;50.886;4.700;2023-10-31T05:16:11;12.80;75.60
8994;DHT22;4532;50.886;4.700;2023-10-31T05:18:41;12.80;75.70
8994;DHT22;4532;50.886;4.700;2023-10-31T05:21:10;12.80;75.70
8994;DHT22;4532;50.886;4.700;2023-10-31T05:23:38;12.80;75.70
8994;DHT22;4532;50.886;4.700;2023-10-31T05:26:07;12.80;75.70
8994;DHT22;4532;50.886;4.700;2023-10-31T05:28:35;12.70;75.60
8994;DHT22;4532;50.886;4.700;2023-10-31T05:31:02;12.70;75.70
8994;DHT22;4532;50.886;4.700;2023-10-31T05:33:32;12.70;75.70
8994;DHT22;4532;50.886;4.700;2023-10-31T05:36:00;12.70;75.70
8994;DHT22;4532;50.886;4.700;2023-10-31T05:38:31;12.70;75.70
8994;DHT22;4532;50.886;4.700;2023-10-31T05:41:01;12.70;75.80
8994;DHT22;4532;50.886;4.700;2023-10-31T05:43:30;12.70;75.90
8994;DHT22;4532;50.886;4.700;2023-10-31T05:46:00;12.70;75.90
8994;DHT22;4532;50.886;4.700;2023-10-31T05:48:27;12.70;75.90
8994;DHT22;4532;50.886;4.700;2023-10-31T05:50:55;12.70;75.90
8994;DHT22;4532;50.886;4.700;2023-10-31T05:53:26;12.70;76.00
8994;DHT22;4532;50.886;4.700;2023-10-31T05:55:54;12.70;76.00
8994;DHT22;4532;50.886;4.700;2023-10-31T05:58:22;12.70;76.00
8994;DHT22;4532;50.886;4.700;2023-10-31T06:00:51;12.70;76.00
8994;DHT22;4532;50.886;4.700;2023-10-31T06:03:18;12.70;76.00
8994;DHT22;4532;50.886;4.700;2023-10-31T06:05:47;12.70;76.00
8994;DHT22;4532;50.886;4.700;2023-10-31T06:08:17;12.70;76.00
8994;DHT22;4532;50.886;4.700;2023-10-31T06:10:44;12.70;76.10
8994;DHT22;4532;50.886;4.700;2023-10-31T06:13:12;12.70;76.10
8994;DHT22;4532;50.886;4.700;2023-10-31T06:15:39;12.80;76.10
8994;DHT22;4532;50.886;4.700;2023-10-31T06:18:11;12.80;76.20
8994;DHT22;4532;50.886;4.700;2023-10-31T06:20:40;12.80;76.20
8994;DHT22;4532;50.886;4.700;2023-10-31T06:23:09;12.80;76.10
8994;DHT22;4532;50.886;4.700;2023-10-31T06:25:37;12.80;76.00
8994;DHT22;4532;50.886;4.700;2023-10-31T06:28:06;12.80;76.10
8994;DHT22;4532;50.886;4.700;2023-10-31T06:30:36;12.80;76.10
8994;DHT22;4532;50.886;4.700;2023-10-31T06:33:10;12.80;76.10
8994;DHT22;4532;50.886;4.700;2023-10-31T06:35:37;12.80;76.20
8994;DHT22;4532;50.886;4.700;2023-10-31T06:38:05;12.80;76.10
8994;DHT22;4532;50.886;4.700;2023-10-31T06:40:34;12.80;76.00
8994;DHT22;4532;50.886;4.700;2023-10-31T06:43:02;12.80;76.00
8994;DHT22;4532;50.886;4.700;2023-10-31T06:45:31;12.80;76.10
8994;DHT22;4532;50.886;4.700;2023-10-31T06:47:58;12.80;76.10
8994;DHT22;4532;50.886;4.700;2023-10-31T06:50:25;12.80;76.10
8994;DHT22;4532;50.886;4.700;2023-10-31T06:52:55;12.80;76.10
8994;DHT22;4532;50.886;4.700;2023-10-31T06:55:22;12.80;76.10
8994;DHT22;4532;50.886;4.700;2023-10-31T06:57:50;12.80;76.10
8994;DHT22;4532;50.886;4.700;2023-10-31T07:00:17;12.80;76.10
8994;DHT22;4532;50.886;4.700;2023-10-31T07:02:50;12.80;76.90
8994;DHT22;4532;50.886;4.700;2023-10-31T07:05:19;12.80;76.10
8994;DHT22;4532;50.886;4.700;2023-10-31T07:07:52;12.80;76.10
8994;DHT22;4532;50.886;4.700;2023-10-31T07:10:21;12.80;76.10
8994;DHT22;4532;50.886;4.700;2023-10-31T07:12:51;12.80;76.10
8994;DHT22;4532;50.886;4.700;2023-10-31T07:15:18;12.80;76.20
8994;DHT22;4532;50.886;4.700;2023-10-31T07:17:48;12.80;76.20
8994;DHT22;4532;50.886;4.700;2023-10-31T07:20:15;12.80;76.20
8994;DHT22;4532;50.886;4.700;2023-10-31T07:22:42;12.80;76.10
8994;DHT22;4532;50.886;4.700;2023-10-31T07:25:10;12.80;76.10
8994;DHT22;4532;50.886;4.700;2023-10-31T07:27:37;12.80;76.20
8994;DHT22;4532;50.886;4.700;2023-10-31T07:30:07;12.80;76.20
8994;DHT22;4532;50.886;4.700;2023-10-31T07:32:36;12.80;76.20
8994;DHT22;4532;50.886;4.700;2023-10-31T07:35:06;12.80;76.90
8994;DHT22;4532;50.886;4.700;2023-10-31T07:37:36;12.80;76.20
8994;DHT22;4532;50.886;4.700;2023-10-31T07:40:03;12.80;76.20
8994;DHT22;4532;50.886;4.700;2023-10-31T07:42:31;12.80;76.00
8994;DHT22;4532;50.886;4.700;2023-10-31T07:44:58;12.80;76.20
8994;DHT22;4532;50.886;4.700;2023-10-31T07:47:25;12.80;76.20
8994;DHT22;4532;50.886;4.700;2023-10-31T07:49:55;12.80;76.30
8994;DHT22;4532;50.886;4.700;2023-10-31T07:52:24;12.80;76.30
8994;DHT22;4532;50.886;4.700;2023-10-31T07:54:54;12.80;76.30
8994;DHT22;4532;50.886;4.700;2023-10-31T07:57:21;12.80;76.40
8994;DHT22;4532;50.886;4.700;2023-10-31T07:59:51;12.80;76.40
8994;DHT22;4532;50.886;4.700;2023-10-31T08:02:20;12.90;76.50
8994;DHT22;4532;50.886;4.700;2023-10-31T08:04:48;12.90;76.40
8994;DHT22;4532;50.886;4.700;2023-10-31T08:07:17;12.90;76.50
8994;DHT22;4532;50.886;4.700;2023-10-31T08:09:44;12.90;76.40
8994;DHT22;4532;50.886;4.700;2023-10-31T08:12:14;12.90;76.50
8994;DHT22;4532;50.886;4.700;2023-10-31T08:14:44;12.90;76.50
8994;DHT22;4532;50.886;4.700;2023-10-31T08:17:11;13.00;76.60
8994;DHT22;4532;50.886;4.700;2023-10-31T08:19:41;13.00;76.60
8994;DHT22;4532;50.886;4.700;2023-10-31T08:22:10;13.00;76.50
8994;DHT22;4532;50.886;4.700;2023-10-31T08:24:40;13.00;76.50
8994;DHT22;4532;50.886;4.700;2023-10-31T08:27:07;13.10;76.60
8994;DHT22;4532;50.886;4.700;2023-10-31T08:29:40;13.10;76.60
8994;DHT22;4532;50.886;4.700;2023-10-31T08:32:09;13.10;76.70
8994;DHT22;4532;50.886;4.700;2023-10-31T08:34:39;13.10;76.60
8994;DHT22;4532;50.886;4.700;2023-10-31T08:37:08;13.10;76.60
8994;DHT22;4532;50.886;4.700;2023-10-31T08:39:38;13.20;76.60
8994;DHT22;4532;50.886;4.700;2023-10-31T08:42:05;13.20;76.70
8994;DHT22;4532;50.886;4.700;2023-10-31T08:44:33;13.20;76.60
8994;DHT22;4532;50.886;4.700;2023-10-31T08:47:06;13.20;76.60
8994;DHT22;4532;50.886;4.700;2023-10-31T08:49:34;13.20;76.60
8994;DHT22;4532;50.886;4.700;2023-10-31T08:52:03;13.20;76.60
8994;DHT22;4532;50.886;4.700;2023-10-31T08:54:33;13.30;76.70
8994;DHT22;4532;50.886;4.700;2023-10-31T08:57:03;13.30;76.70
8994;DHT22;4532;50.886;4.700;2023-10-31T08:59:30;13.30;76.60
8994;DHT22;4532;50.886;4.700;2023-10-31T09:01:59;13.30;76.60
8994;DHT22;4532;50.886;4.700;2023-10-31T09:04:27;13.30;76.50
8994;DHT22;4532;50.886;4.700;2023-10-31T09:06:54;13.30;76.60
8994;DHT22;4532;50.886;4.700;2023-10-31T09:09:23;13.30;76.60
8994;DHT22;4532;50.886;4.700;2023-10-31T09:11:50;13.30;76.80
8994;DHT22;4532;50.886;4.700;2023-10-31T09:14:20;13.30;76.80
8994;DHT22;4532;50.886;4.700;2023-10-31T09:16:50;13.40;76.90
8994;DHT22;4532;50.886;4.700;2023-10-31T09:19:19;13.40;76.90
8994;DHT22;4532;50.886;4.700;2023-10-31T09:21:46;13.40;76.90
8994;DHT22;4532;50.886;4.700;2023-10-31T09:24:19;13.40;76.80
8994;DHT22;4532;50.886;4.700;2023-10-31T09:26:48;13.50;76.80
8994;DHT22;4532;50.886;4.700;2023-10-31T09:29:18;13.50;76.90
8994;DHT22;4532;50.886;4.700;2023-10-31T09:31:58;13.50;76.80
8994;DHT22;4532;50.886;4.700;2023-10-31T09:34:27;13.50;76.90
8994;DHT22;4532;50.886;4.700;2023-10-31T09:36:55;13.50;76.90
8994;DHT22;4532;50.886;4.700;2023-10-31T09:39:25;13.50;76.80
8994;DHT22;4532;50.886;4.700;2023-10-31T09:41:57;13.60;76.90
8994;DHT22;4532;50.886;4.700;2023-10-31T09:44:26;13.60;76.90
8994;DHT22;4532;50.886;4.700;2023-10-31T09:46:57;13.60;76.90
8994;DHT22;4532;50.886;4.700;2023-10-31T09:49:29;13.60;77.00
8994;DHT22;4532;50.886;4.700;2023-10-31T09:51:59;13.70;77.10
8994;DHT22;4532;50.886;4.700;2023-10-31T09:54:26;13.70;77.00
8994;DHT22;4532;50.886;4.700;2023-10-31T09:56:56;13.70;77.00
8994;DHT22;4532;50.886;4.700;2023-10-31T09:59:23;13.70;76.90
8994;DHT22;4532;50.886;4.700;2023-10-31T10:01:50;13.80;77.00
8994;DHT22;4532;50.886;4.700;2023-10-31T10:04:22;13.80;77.00
8994;DHT22;4532;50.886;4.700;2023-10-31T10:07:02;13.80;77.00
8994;DHT22;4532;50.886;4.700;2023-10-31T10:09:30;13.80;76.90
8994;DHT22;4532;50.886;4.700;2023-10-31T10:12:04;13.90;77.10
8994;DHT22;4532;50.886;4.700;2023-10-31T10:14:32;13.90;77.10
8994;DHT22;4532;50.886;4.700;2023-10-31T10:17:01;13.90;77.10
8994;DHT22;4532;50.886;4.700;2023-10-31T10:19:31;13.90;77.10
8994;DHT22;4532;50.886;4.700;2023-10-31T10:21:58;14.00;77.20
8994;DHT22;4532;50.886;4.700;2023-10-31T10:24:26;14.00;77.10
8994;DHT22;4532;50.886;4.700;2023-10-31T10:26:56;14.00;77.10
8994;DHT22;4532;50.886;4.700;2023-10-31T10:29:23;14.10;77.20
8994;DHT22;4532;50.886;4.700;2023-10-31T10:31:55;14.10;77.20
8994;DHT22;4532;50.886;4.700;2023-10-31T10:34:22;14.20;77.20
8994;DHT22;4532;50.886;4.700;2023-10-31T10:36:55;14.20;77.20
8994;DHT22;4532;50.886;4.700;2023-10-31T10:39:27;14.20;77.20
8994;DHT22;4532;50.886;4.700;2023-10-31T10:42:01;14.30;77.20
8994;DHT22;4532;50.886;4.700;2023-10-31T10:44:33;14.30;77.20
8994;DHT22;4532;50.886;4.700;2023-10-31T10:47:06;14.30;77.20
8994;DHT22;4532;50.886;4.700;2023-10-31T10:49:36;14.40;77.20
8994;DHT22;4532;50.886;4.700;2023-10-31T10:52:21;14.40;77.00
8994;DHT22;4532;50.886;4.700;2023-10-31T10:55:04;14.40;77.00
8994;DHT22;4532;50.886;4.700;2023-10-31T11:00:06;14.40;77.00
8994;DHT22;4532;50.886;4.700;2023-10-31T11:02:43;14.40;77.00
8994;DHT22;4532;50.886;4.700;2023-10-31T11:05:20;14.40;76.90
8994;DHT22;4532;50.886;4.700;2023-10-31T11:07:48;14.40;76.90
8994;DHT22;4532;50.886;4.700;2023-10-31T11:10:17;14.40;77.00
8994;DHT22;4532;50.886;4.700;2023-10-31T11:12:49;14.50;77.00
8994;DHT22;4532;50.886;4.700;2023-10-31T11:15:19;14.50;77.00
8994;DHT22;4532;50.886;4.700;2023-10-31T11:17:50;14.50;77.00
8994;DHT22;4532;50.886;4.700;2023-10-31T11:20:24;14.50;77.00
8994;DHT22;4532;50.886;4.700;2023-10-31T11:22:55;14.50;76.90
8994;DHT22;4532;50.886;4.700;2023-10-31T11:25:24;14.50;76.90
8994;DHT22;4532;50.886;4.700;2023-10-31T11:30:42;14.60;77.00
8994;DHT22;4532;50.886;4.700;2023-10-31T11:33:16;14.60;77.00
8994;DHT22;4532;50.886;4.700;2023-10-31T11:36:03;14.60;77.00
8994;DHT22;4532;50.886;4.700;2023-10-31T11:38:32;14.60;77.00
8994;DHT22;4532;50.886;4.700;2023-10-31T11:41:02;14.60;77.00
8994;DHT22;4532;50.886;4.700;2023-10-31T11:43:51;14.70;77.10
8994;DHT22;4532;50.886;4.700;2023-10-31T11:46:25;14.70;77.10
8994;DHT22;4532;50.886;4.700;2023-10-31T11:48:56;14.70;77.00
8994;DHT22;4532;50.886;4.700;2023-10-31T11:51:27;14.70;77.00
8994;DHT22;4532;50.886;4.700;2023-10-31T11:53:54;14.70;76.90
8994;DHT22;4532;50.886;4.700;2023-10-31T11:56:24;14.80;77.00
8994;DHT22;4532;50.886;4.700;2023-10-31T11:59:06;14.80;77.00
8994;DHT22;4532;50.886;4.700;2023-10-31T12:01:51;14.80;77.00
8994;DHT22;4532;50.886;4.700;2023-10-31T12:04:22;14.80;76.90
8994;DHT22;4532;50.886;4.700;2023-10-31T12:07:02;14.80;76.90
8994;DHT22;4532;50.886;4.700;2023-10-31T12:09:32;14.80;76.90
8994;DHT22;4532;50.886;4.700;2023-10-31T12:12:05;14.80;76.80
8994;DHT22;4532;50.886;4.700;2023-10-31T12:14:32;14.80;76.70
8994;DHT22;4532;50.886;4.700;2023-10-31T12:17:04;14.70;76.60
8994;DHT22;4532;50.886;4.700;2023-10-31T12:19:34;14.70;76.70
8994;DHT22;4532;50.886;4.700;2023-10-31T12:22:01;14.70;76.70
8994;DHT22;4532;50.886;4.700;2023-10-31T12:24:32;14.70;76.70
8994;DHT22;4532;50.886;4.700;2023-10-31T12:27:01;14.70;76.70
8994;DHT22;4532;50.886;4.700;2023-10-31T12:29:28;14.70;76.70
8994;DHT22;4532;50.886;4.700;2023-10-31T12:31:58;14.70;76.70
8994;DHT22;4532;50.886;4.700;2023-10-31T12:34:25;14.70;76.70
8994;DHT22;4532;50.886;4.700;2023-10-31T12:36:55;14.70;76.70
8994;DHT22;4532;50.886;4.700;2023-10-31T12:39:25;14.70;76.70
8994;DHT22;4532;50.886;4.700;2023-10-31T12:41:56;14.70;76.80
8994;DHT22;4532;50.886;4.700;2023-10-31T12:44:26;14.70;76.80
8994;DHT22;4532;50.886;4.700;2023-10-31T12:46:55;14.70;76.80
8994;DHT22;4532;50.886;4.700;2023-10-31T12:49:23;14.70;76.80
8994;DHT22;4532;50.886;4.700;2023-10-31T12:54:34;14.70;76.80
8994;DHT22;4532;50.886;4.700;2023-10-31T12:57:04;14.70;76.90
8994;DHT22;4532;50.886;4.700;2023-10-31T12:59:33;14.70;76.80
8994;DHT22;4532;50.886;4.700;2023-10-31T13:02:00;14.70;76.80
8994;DHT22;4532;50.886;4.700;2023-10-31T13:04:35;14.70;76.70
8994;DHT22;4532;50.886;4.700;2023-10-31T13:07:10;14.70;76.60
8994;DHT22;4532;50.886;4.700;2023-10-31T13:09:39;14.70;76.70
8994;DHT22;4532;50.886;4.700;2023-10-31T13:12:11;14.70;76.80
8994;DHT22;4532;50.886;4.700;2023-10-31T13:14:43;14.60;76.70
8994;DHT22;4532;50.886;4.700;2023-10-31T13:17:11;14.60;76.80
8994;DHT22;4532;50.886;4.700;2023-10-31T13:19:43;14.60;76.80
8994;DHT22;4532;50.886;4.700;2023-10-31T13:22:13;14.60;76.80
8994;DHT22;4532;50.886;4.700;2023-10-31T13:24:41;14.60;76.90
8994;DHT22;4532;50.886;4.700;2023-10-31T13:27:12;14.60;76.90
8994;DHT22;4532;50.886;4.700;2023-10-31T13:29:44;14.70;77.00
8994;DHT22;4532;50.886;4.700;2023-10-31T13:32:12;14.70;77.00
8994;DHT22;4532;50.886;4.700;2023-10-31T13:34:40;14.70;77.00
8994;DHT22;4532;50.886;4.700;2023-10-31T13:37:09;14.70;77.00
8994;DHT22;4532;50.886;4.700;2023-10-31T13:39:41;14.70;77.00
8994;DHT22;4532;50.886;4.700;2023-10-31T13:42:08;14.70;76.90
8994;DHT22;4532;50.886;4.700;2023-10-31T13:44:40;14.70;76.90
8994;DHT22;4532;50.886;4.700;2023-10-31T13:47:09;14.70;76.90
8994;DHT22;4532;50.886;4.700;2023-10-31T13:49:37;14.70;76.90
8994;DHT22;4532;50.886;4.700;2023-10-31T13:52:04;14.70;76.90
8994;DHT22;4532;50.886;4.700;2023-10-31T13:54:35;14.70;76.90
8994;DHT22;4532;50.886;4.700;2023-10-31T13:57:05;14.70;76.90
8994;DHT22;4532;50.886;4.700;2023-10-31T13:59:34;14.70;77.00
8994;DHT22;4532;50.886;4.700;2023-10-31T14:02:01;14.70;77.00
8994;DHT22;4532;50.886;4.700;2023-10-31T14:04:29;14.70;77.10
8994;DHT22;4532;50.886;4.700;2023-10-31T14:06:57;14.70;77.00
8994;DHT22;4532;50.886;4.700;2023-10-31T14:09:24;14.70;77.00
8994;DHT22;4532;50.886;4.700;2023-10-31T14:11:53;14.70;77.10
8994;DHT22;4532;50.886;4.700;2023-10-31T14:14:24;14.70;77.00
8994;DHT22;4532;50.886;4.700;2023-10-31T14:16:53;14.70;77.00
8994;DHT22;4532;50.886;4.700;2023-10-31T14:19:21;14.70;77.00
8994;DHT22;4532;50.886;4.700;2023-10-31T14:21:51;14.70;77.00
8994;DHT22;4532;50.886;4.700;2023-10-31T14:24:19;14.70;77.20
8994;DHT22;4532;50.886;4.700;2023-10-31T14:26:48;14.80;77.20
8994;DHT22;4532;50.886;4.700;2023-10-31T14:29:20;14.80;77.30
8994;DHT22;4532;50.886;4.700;2023-10-31T14:31:50;14.80;77.30
8994;DHT22;4532;50.886;4.700;2023-10-31T14:34:23;14.80;77.40
8994;DHT22;4532;50.886;4.700;2023-10-31T14:36:53;14.90;77.40
8994;DHT22;4532;50.886;4.700;2023-10-31T14:39:22;14.90;77.40
8994;DHT22;4532;50.886;4.700;2023-10-31T14:41:50;14.90;77.40
8994;DHT22;4532;50.886;4.700;2023-10-31T14:44:17;14.90;77.30
8994;DHT22;4532;50.886;4.700;2023-10-31T14:46:48;14.90;77.20
8994;DHT22;4532;50.886;4.700;2023-10-31T14:49:17;15.00;77.20
8994;DHT22;4532;50.886;4.700;2023-10-31T14:51:47;15.00;77.20
8994;DHT22;4532;50.886;4.700;2023-10-31T14:54:14;15.00;77.20
8994;DHT22;4532;50.886;4.700;2023-10-31T14:56:41;14.90;77.20
8994;DHT22;4532;50.886;4.700;2023-10-31T14:59:09;15.00;77.30
8994;DHT22;4532;50.886;4.700;2023-10-31T15:01:41;15.00;77.30
8994;DHT22;4532;50.886;4.700;2023-10-31T15:04:11;15.00;77.30
8994;DHT22;4532;50.886;4.700;2023-10-31T15:06:41;15.00;77.30
8994;DHT22;4532;50.886;4.700;2023-10-31T15:09:08;15.00;77.30
8994;DHT22;4532;50.886;4.700;2023-10-31T15:11:38;15.00;77.30
8994;DHT22;4532;50.886;4.700;2023-10-31T15:14:05;15.00;77.30
8994;DHT22;4532;50.886;4.700;2023-10-31T15:16:37;15.00;77.40
8994;DHT22;4532;50.886;4.700;2023-10-31T15:19:06;15.00;77.30
8994;DHT22;4532;50.886;4.700;2023-10-31T15:21:34;15.00;77.20
8994;DHT22;4532;50.886;4.700;2023-10-31T15:24:01;15.00;77.30
8994;DHT22;4532;50.886;4.700;2023-10-31T15:26:34;15.00;77.20
8994;DHT22;4532;50.886;4.700;2023-10-31T15:29:04;15.00;77.20
8994;DHT22;4532;50.886;4.700;2023-10-31T15:31:43;15.00;77.10
8994;DHT22;4532;50.886;4.700;2023-10-31T15:34:11;15.00;77.10
8994;DHT22;4532;50.886;4.700;2023-10-31T15:36:41;15.00;77.10
8994;DHT22;4532;50.886;4.700;2023-10-31T15:39:08;15.00;77.10
8994;DHT22;4532;50.886;4.700;2023-10-31T15:41:40;15.00;77.10
8994;DHT22;4532;50.886;4.700;2023-10-31T15:44:08;15.00;77.10
8994;DHT22;4532;50.886;4.700;2023-10-31T15:46:37;15.00;77.10
8994;DHT22;4532;50.886;4.700;2023-10-31T15:49:05;15.00;77.30
8994;DHT22;4532;50.886;4.700;2023-10-31T15:51:32;15.00;77.20
8994;DHT22;4532;50.886;4.700;2023-10-31T15:54:02;15.00;77.10
8994;DHT22;4532;50.886;4.700;2023-10-31T15:56:33;15.00;77.10
8994;DHT22;4532;50.886;4.700;2023-10-31T15:59:02;15.00;77.10
8994;DHT22;4532;50.886;4.700;2023-10-31T16:01:30;15.00;77.10
8994;DHT22;4532;50.886;4.700;2023-10-31T16:03:57;15.00;77.10
8994;DHT22;4532;50.886;4.700;2023-10-31T16:06:24;14.90;77.00
8994;DHT22;4532;50.886;4.700;2023-10-31T16:08:56;14.90;77.00
8994;DHT22;4532;50.886;4.700;2023-10-31T16:11:23;14.90;77.10
8994;DHT22;4532;50.886;4.700;2023-10-31T16:13:51;14.90;77.00
8994;DHT22;4532;50.886;4.700;2023-10-31T16:16:21;14.90;77.80
8994;DHT22;4532;50.886;4.700;2023-10-31T16:18:48;14.90;77.00
8994;DHT22;4532;50.886;4.700;2023-10-31T16:21:21;14.90;77.00
8994;DHT22;4532;50.886;4.700;2023-10-31T16:23:51;14.90;77.00